Time;durP1;ratioP1;P1;durP2;ratioP2;P2;SDS_P1;SDS_P2;PMS_P1;PMS_P2;Temp;Humidity;BMP_temperature;BMP_pressure;BME280_temperature;BME280_humidity;BME280_pressure;Samples;Min_cycle;Max_cycle;Signal;HPM_P1;HPM_P2
2023/09/11 00:00:56;;;;;;;13.30;11.20;;;;;;;16.29;80.89;100237.98;131083;1254;97378;-76
2023/09/11 00:04:19;;;;;;;15.50;10.80;;;;;;;16.24;80.80;100235.13;130944;1251;97613;-76
2023/09/11 00:07:24;;;;;;;11.40;9.80;;;;;;;16.21;80.92;100235.41;131016;1254;96690;-76
2023/09/11 00:10:32;;;;;;;13.30;10.20;;;;;;;16.19;80.97;100234.78;131050;1263;96635;-76
2023/09/11 00:13:42;;;;;;;14.30;10.50;;;;;;;16.17;80.96;100227.79;131014;1253;97782;-76
2023/09/11 00:16:47;;;;;;;14.00;11.10;;;;;;;16.16;81.01;100220.20;131120;1251;96664;-76
2023/09/11 00:19:53;;;;;;;14.50;10.70;;;;;;;16.15;81.23;100223.38;131033;1256;96681;-76
2023/09/11 00:22:59;;;;;;;13.20;10.20;;;;;;;16.11;81.04;100222.05;131052;1263;96611;-77
2023/09/11 00:26:05;;;;;;;16.60;10.70;;;;;;;16.07;81.14;100218.04;130971;1251;97387;-76
2023/09/11 00:29:10;;;;;;;13.30;10.40;;;;;;;16.05;81.44;100218.23;131044;1251;96617;-76
2023/09/11 00:32:16;;;;;;;15.00;11.30;;;;;;;16.04;81.49;100216.39;131076;1263;96677;-76
2023/09/11 00:35:21;;;;;;;13.70;11.30;;;;;;;16.03;81.44;100214.96;130967;1254;96675;-75
2023/09/11 00:38:27;;;;;;;17.00;13.40;;;;;;;16.02;81.41;100213.47;131043;1256;97257;-76
2023/09/11 00:41:32;;;;;;;14.80;11.20;;;;;;;15.99;81.44;100210.04;130989;1253;96684;-77
2023/09/11 00:44:39;;;;;;;12.10;9.70;;;;;;;15.97;81.49;100211.09;131028;1251;97509;-77
2023/09/11 00:47:47;;;;;;;13.80;10.90;;;;;;;15.94;81.44;100209.31;131029;1254;97300;-75
2023/09/11 00:50:55;;;;;;;12.60;10.60;;;;;;;15.92;81.36;100211.32;131040;1263;97373;-76
2023/09/11 00:54:01;;;;;;;13.00;11.40;;;;;;;15.86;81.29;100212.17;130981;1254;97825;-76
2023/09/11 00:57:07;;;;;;;13.70;11.50;;;;;;;15.86;81.48;100209.55;131090;1255;97835;-75
2023/09/11 01:00:17;;;;;;;14.80;11.40;;;;;;;15.83;81.49;100204.52;130983;1251;96695;-76
2023/09/11 01:03:23;;;;;;;13.60;11.00;;;;;;;15.79;81.47;100204.50;131071;1255;96593;-76
2023/09/11 01:06:29;;;;;;;12.90;9.30;;;;;;;15.70;81.36;100196.22;131032;1253;97391;-76
2023/09/11 01:09:36;;;;;;;12.90;9.70;;;;;;;15.68;81.53;100195.17;131246;1253;97297;-76
2023/09/11 01:12:41;;;;;;;15.10;11.50;;;;;;;15.68;81.78;100194.59;131022;1256;96742;-76
2023/09/11 01:15:55;;;;;;;13.10;10.60;;;;;;;15.66;81.73;100193.14;131049;1264;97852;-76
2023/09/11 01:19:10;;;;;;;14.20;11.60;;;;;;;15.63;81.74;100189.45;131002;1251;96684;-76
2023/09/11 01:22:50;;;;;;;14.10;10.50;;;;;;;15.59;81.93;100187.88;131060;1263;96620;-76
2023/09/11 01:26:16;;;;;;;10.50;9.40;;;;;;;15.57;82.05;100180.20;130962;1264;97397;-76
2023/09/11 01:29:25;;;;;;;12.90;10.60;;;;;;;15.58;81.99;100181.73;130946;1251;96591;-76
2023/09/11 01:32:32;;;;;;;13.70;10.20;;;;;;;15.62;82.35;100179.31;130986;1251;96628;-76
2023/09/11 01:35:38;;;;;;;14.60;11.00;;;;;;;15.64;82.50;100181.49;131037;1254;97776;-75
2023/09/11 01:38:44;;;;;;;13.90;11.30;;;;;;;15.67;82.97;100178.86;131006;1254;97423;-74
2023/09/11 01:41:53;;;;;;;16.10;11.90;;;;;;;15.67;82.92;100175.45;131006;1254;97283;-75
2023/09/11 01:45:01;;;;;;;17.20;12.80;;;;;;;15.66;83.21;100177.33;131041;1253;97664;-74
2023/09/11 01:48:12;;;;;;;17.40;12.40;;;;;;;15.69;83.14;100175.64;131102;1262;96619;-75
2023/09/11 01:51:20;;;;;;;23.60;14.10;;;;;;;15.70;83.27;100170.02;131006;1263;97826;-74
2023/09/11 01:54:26;;;;;;;15.80;11.30;;;;;;;15.71;83.26;100171.89;131073;1254;96618;-74
2023/09/11 01:57:32;;;;;;;15.80;11.80;;;;;;;15.70;83.27;100169.31;130998;1254;96709;-74
2023/09/11 02:00:37;;;;;;;15.30;11.30;;;;;;;15.68;83.19;100167.05;130969;1254;97775;-75
2023/09/11 02:03:43;;;;;;;16.90;10.90;;;;;;;15.65;83.22;100169.17;131013;1257;96603;-74
2023/09/11 02:06:49;;;;;;;16.10;11.00;;;;;;;15.65;83.27;100166.77;130987;1253;97373;-74
2023/09/11 02:09:55;;;;;;;14.50;12.10;;;;;;;15.61;83.23;100167.59;131062;1255;97388;-77
2023/09/11 02:13:05;;;;;;;14.10;11.80;;;;;;;15.61;83.55;100163.50;131042;1253;96631;-75
2023/09/11 02:16:13;;;;;;;16.60;13.00;;;;;;;15.60;83.31;100161.79;131080;1254;96588;-75
2023/09/11 02:19:19;;;;;;;15.80;11.80;;;;;;;15.58;83.35;100158.45;131027;1263;96602;-75
2023/09/11 02:22:36;;;;;;;78.80;63.10;;;;;;;15.55;83.43;100165.42;130956;1251;97422;-75
2023/09/11 02:25:53;;;;;;;27.00;22.90;;;;;;;15.53;83.37;100162.64;131077;1254;97401;-75
2023/09/11 02:28:59;;;;;;;21.40;17.30;;;;;;;15.52;83.45;100157.85;131002;1254;97407;-76
2023/09/11 02:32:07;;;;;;;18.90;14.30;;;;;;;15.52;83.56;100161.89;131356;1254;96613;-77
2023/09/11 02:35:12;;;;;;;17.80;12.40;;;;;;;15.51;83.45;100161.35;131404;1251;96594;-76
2023/09/11 02:38:18;;;;;;;16.20;11.90;;;;;;;15.49;83.56;100163.40;131090;1254;96611;-77
2023/09/11 02:41:24;;;;;;;15.30;10.60;;;;;;;15.47;83.63;100159.96;131027;1253;97376;-75
2023/09/11 02:44:32;;;;;;;14.20;10.40;;;;;;;15.43;83.78;100159.05;131247;1251;97874;-75
2023/09/11 02:47:37;;;;;;;14.50;10.70;;;;;;;15.37;83.64;100157.27;131136;1250;96711;-74
2023/09/11 02:50:43;;;;;;;15.20;10.50;;;;;;;15.33;83.84;100159.34;130930;1263;97774;-75
2023/09/11 02:53:48;;;;;;;15.20;11.00;;;;;;;15.29;83.97;100158.36;131087;1251;96606;-75
2023/09/11 02:56:54;;;;;;;13.90;11.00;;;;;;;15.19;83.98;100159.52;131056;1254;97384;-76
2023/09/11 03:00:01;;;;;;;13.90;10.00;;;;;;;15.07;83.79;100160.92;131005;1256;96623;-75
2023/09/11 03:03:07;;;;;;;14.70;10.80;;;;;;;14.98;83.85;100159.66;131064;1253;96593;-75
2023/09/11 03:06:13;;;;;;;13.90;11.10;;;;;;;14.94;84.05;100159.00;131071;1254;97791;-75
2023/09/11 03:09:22;;;;;;;14.00;10.80;;;;;;;14.92;84.04;100158.88;131077;1254;97359;-75
2023/09/11 03:12:28;;;;;;;13.00;10.80;;;;;;;14.84;84.13;100151.95;131008;1249;97785;-76
2023/09/11 03:15:35;;;;;;;14.00;10.80;;;;;;;14.82;84.01;100151.81;131053;1251;96741;-75
2023/09/11 03:18:41;;;;;;;11.30;10.00;;;;;;;14.76;83.72;100155.98;131016;1251;97397;-75
2023/09/11 03:21:47;;;;;;;14.10;10.50;;;;;;;14.73;84.22;100152.74;131052;1254;96722;-75
2023/09/11 03:24:52;;;;;;;13.90;10.60;;;;;;;14.73;84.03;100153.09;131041;1254;96598;-75
2023/09/11 03:27:58;;;;;;;14.10;10.90;;;;;;;14.71;84.06;100153.04;131044;1265;97670;-75
2023/09/11 03:31:04;;;;;;;14.80;11.40;;;;;;;14.71;84.13;100154.42;131041;1250;96598;-75
2023/09/11 03:34:11;;;;;;;14.00;10.30;;;;;;;14.67;84.47;100152.00;130998;1254;97289;-75
2023/09/11 03:37:17;;;;;;;11.80;9.50;;;;;;;14.63;84.56;100149.66;130972;1254;97401;-75
2023/09/11 03:40:23;;;;;;;12.80;9.90;;;;;;;14.57;84.32;100145.98;131050;1255;97836;-75
2023/09/11 03:43:29;;;;;;;13.60;10.20;;;;;;;14.50;84.55;100142.06;130997;1255;97798;-76
2023/09/11 03:46:35;;;;;;;12.10;9.70;;;;;;;14.51;84.72;100141.65;131068;1251;96671;-76
2023/09/11 03:49:40;;;;;;;14.50;10.20;;;;;;;14.51;84.57;100142.05;131026;1250;96725;-73
2023/09/11 03:52:46;;;;;;;12.70;9.40;;;;;;;14.45;84.72;100141.05;131032;1251;97817;-75
2023/09/11 03:55:52;;;;;;;12.30;9.40;;;;;;;14.36;84.35;100139.13;130999;1254;96593;-74
2023/09/11 03:58:58;;;;;;;11.80;9.50;;;;;;;14.32;84.80;100137.44;130969;1255;96703;-75
2023/09/11 04:02:03;;;;;;;14.20;9.90;;;;;;;14.33;84.81;100135.31;131060;1257;97653;-75
2023/09/11 04:05:09;;;;;;;11.70;10.50;;;;;;;14.33;84.71;100131.10;130978;1250;96610;-74
2023/09/11 04:08:15;;;;;;;12.40;10.00;;;;;;;14.34;84.70;100132.89;131038;1251;97380;-73
2023/09/11 04:11:22;;;;;;;11.90;10.30;;;;;;;14.33;84.94;100127.00;131014;1255;97782;-73
2023/09/11 04:14:28;;;;;;;11.50;9.40;;;;;;;14.33;84.95;100121.36;131051;1253;97838;-73
2023/09/11 04:17:33;;;;;;;12.10;9.80;;;;;;;14.33;85.01;100122.52;131046;1267;97677;-74
2023/09/11 04:20:39;;;;;;;12.60;9.60;;;;;;;14.32;84.82;100121.71;131038;1255;96592;-73
2023/09/11 04:23:59;;;;;;;16.60;9.90;;;;;;;14.31;85.01;100120.13;131041;1254;96593;-73
2023/09/11 04:27:07;;;;;;;14.00;10.40;;;;;;;14.34;84.97;100119.88;130999;1254;97842;-74
2023/09/11 04:30:17;;;;;;;13.50;10.00;;;;;;;14.32;84.86;100119.56;131098;1255;96609;-73
2023/09/11 04:33:23;;;;;;;11.90;10.00;;;;;;;14.33;85.18;100117.23;131010;1255;96669;-73
2023/09/11 04:36:29;;;;;;;12.90;10.10;;;;;;;14.38;85.36;100118.85;131012;1250;97392;-73
2023/09/11 04:39:43;;;;;;;13.10;9.40;;;;;;;14.46;85.39;100117.60;131046;1254;96589;-73
2023/09/11 04:42:49;;;;;;;13.10;9.90;;;;;;;14.51;84.79;100119.26;131030;1257;97296;-75
2023/09/11 04:45:54;;;;;;;13.00;10.20;;;;;;;14.60;85.00;100116.73;131001;1253;97779;-75
2023/09/11 04:49:00;;;;;;;13.70;9.20;;;;;;;14.69;84.99;100114.69;131009;1254;96587;-75
2023/09/11 04:52:20;;;;;;;11.60;8.40;;;;;;;14.82;84.74;100114.52;131041;1254;97481;-74
2023/09/11 04:55:32;;;;;;;11.80;9.50;;;;;;;14.99;84.68;100112.52;131036;1255;96639;-75
2023/09/11 04:58:40;;;;;;;12.60;10.20;;;;;;;15.16;84.90;100117.16;131291;1251;97782;-74
2023/09/11 05:01:54;;;;;;;12.80;10.40;;;;;;;15.34;84.93;100111.86;131141;1254;97096;-74
2023/09/11 05:05:03;;;;;;;18.30;11.60;;;;;;;15.50;84.93;100111.52;131100;1252;97494;-75
2023/09/11 05:08:09;;;;;;;13.40;11.20;;;;;;;15.62;84.75;100109.47;131009;1255;97722;-75
2023/09/11 05:11:14;;;;;;;15.50;10.40;;;;;;;15.74;84.78;100109.98;131073;1251;96614;-75
2023/09/11 05:14:20;;;;;;;17.30;11.40;;;;;;;15.84;84.65;100110.55;131123;1250;96695;-75
2023/09/11 05:17:40;;;;;;;13.90;11.40;;;;;;;15.88;84.80;100110.77;131021;1253;97386;-76
2023/09/11 05:20:50;;;;;;;12.90;11.10;;;;;;;15.92;85.04;100112.86;131024;1265;97695;-78
2023/09/11 05:23:58;;;;;;;13.40;11.40;;;;;;;15.98;85.15;100114.44;131215;1254;97296;-78
2023/09/11 05:27:04;;;;;;;13.30;10.80;;;;;;;16.05;85.28;100112.59;131128;1254;97914;-76
2023/09/11 05:30:14;;;;;;;10.30;9.00;;;;;;;16.12;85.50;100108.02;130952;1264;97782;-76
2023/09/11 05:33:19;;;;;;;13.30;10.40;;;;;;;16.21;85.84;100108.31;131049;1253;97813;-77
2023/09/11 05:36:25;;;;;;;13.10;9.60;;;;;;;16.32;86.11;100109.93;131034;1249;97677;-76
2023/09/11 05:39:31;;;;;;;12.20;9.30;;;;;;;16.43;86.12;100116.40;131060;1254;97820;-77
2023/09/11 05:42:37;;;;;;;12.90;10.00;;;;;;;16.52;86.20;100113.54;130913;1265;97407;-79
2023/09/11 05:45:44;;;;;;;11.90;9.60;;;;;;;16.60;86.47;100114.46;131065;1250;97299;-76
2023/09/11 05:48:49;;;;;;;12.90;9.80;;;;;;;16.71;86.74;100117.23;131066;1249;96687;-76
2023/09/11 05:51:58;;;;;;;12.10;10.40;;;;;;;16.82;86.76;100113.18;130923;1254;96681;-76
2023/09/11 05:55:04;;;;;;;12.30;11.00;;;;;;;16.97;87.09;100112.09;131030;1254;96701;-77
2023/09/11 05:58:09;;;;;;;12.60;10.80;;;;;;;17.11;87.14;100112.58;131020;1254;97811;-77
2023/09/11 06:01:15;;;;;;;12.70;10.30;;;;;;;17.23;87.37;100114.02;130985;1254;97363;-76
2023/09/11 06:04:20;;;;;;;13.70;10.60;;;;;;;17.35;87.67;100112.77;131079;1250;97054;-76
2023/09/11 06:07:28;;;;;;;14.90;12.70;;;;;;;17.48;87.82;100111.83;131086;1251;96601;-78
2023/09/11 06:10:35;;;;;;;15.20;12.10;;;;;;;17.62;87.65;100112.70;131090;1249;96615;-76
2023/09/11 06:13:41;;;;;;;15.40;11.40;;;;;;;17.72;87.72;100112.04;131108;1250;97388;-77
2023/09/11 06:16:47;;;;;;;14.60;11.60;;;;;;;17.83;87.88;100112.00;131132;1256;97406;-77
2023/09/11 06:19:52;;;;;;;15.70;11.70;;;;;;;17.95;87.71;100119.88;131127;1249;96654;-76
2023/09/11 06:22:58;;;;;;;13.90;12.00;;;;;;;18.08;87.83;100117.38;130991;1252;97282;-76
2023/09/11 06:26:03;;;;;;;15.70;12.40;;;;;;;18.20;87.77;100113.07;130992;1251;98076;-77
2023/09/11 06:29:17;;;;;;;13.40;11.90;;;;;;;18.32;87.66;100113.07;131100;1249;97376;-77
2023/09/11 06:32:23;;;;;;;15.50;11.10;;;;;;;18.43;87.58;100112.91;131177;1254;97831;-77
2023/09/11 06:35:31;;;;;;;13.00;11.40;;;;;;;18.55;87.60;100110.90;131077;1251;96595;-76
2023/09/11 06:38:37;;;;;;;15.10;11.30;;;;;;;18.68;87.54;100111.94;131001;1254;96629;-77
2023/09/11 06:41:43;;;;;;;13.10;11.00;;;;;;;18.80;87.33;100110.94;131123;1254;97408;-77
2023/09/11 06:44:51;;;;;;;14.50;11.50;;;;;;;18.91;87.16;100113.77;131168;1251;97201;-75
2023/09/11 06:48:00;;;;;;;10.80;9.40;;;;;;;19.01;87.08;100119.17;131191;1250;96681;-77
2023/09/11 06:51:06;;;;;;;15.20;10.90;;;;;;;19.11;86.87;100118.41;131041;1250;96686;-76
2023/09/11 06:54:12;;;;;;;14.70;11.20;;;;;;;19.21;86.80;100116.13;131011;1250;96628;-76
2023/09/11 06:57:18;;;;;;;14.60;10.20;;;;;;;19.34;87.00;100116.63;131007;1254;97322;-76
2023/09/11 07:00:24;;;;;;;11.50;9.40;;;;;;;19.47;86.75;100119.16;131378;1254;97788;-78
2023/09/11 07:03:29;;;;;;;10.30;8.20;;;;;;;19.58;86.43;100119.06;131492;1254;96650;-77
2023/09/11 07:06:35;;;;;;;12.80;10.60;;;;;;;19.66;86.00;100116.55;131564;1253;96651;-77
2023/09/11 07:09:40;;;;;;;14.10;10.60;;;;;;;19.72;85.99;100118.02;131478;1254;97301;-78
2023/09/11 07:12:46;;;;;;;12.60;9.90;;;;;;;19.82;85.98;100118.64;131587;1254;97778;-78
2023/09/11 07:16:01;;;;;;;14.60;11.00;;;;;;;19.93;86.02;100121.52;131499;1250;96700;-75
2023/09/11 07:19:07;;;;;;;12.50;11.00;;;;;;;20.06;86.05;100122.66;131636;1254;97813;-78
2023/09/11 07:22:12;;;;;;;12.70;11.20;;;;;;;20.16;86.01;100120.41;131580;1253;97769;-78
2023/09/11 07:25:22;;;;;;;11.80;10.60;;;;;;;20.28;85.95;100118.73;131103;1254;96692;-76
2023/09/11 07:28:55;;;;;;;11.70;9.40;;;;;;;20.44;85.74;100118.33;131028;1254;97816;-77
2023/09/11 07:32:01;;;;;;;13.40;10.30;;;;;;;20.55;84.89;100114.57;131176;1254;97801;-78
2023/09/11 07:35:09;;;;;;;14.10;11.10;;;;;;;20.66;84.38;100116.36;131051;1250;96658;-76
2023/09/11 07:38:15;;;;;;;13.20;11.40;;;;;;;20.78;84.03;100113.50;131087;1249;96597;-77
2023/09/11 07:41:22;;;;;;;13.20;10.30;;;;;;;20.93;84.31;100108.35;131135;1254;97396;-76
2023/09/11 07:44:29;;;;;;;11.90;10.10;;;;;;;21.05;84.20;100105.45;131025;1254;97427;-77
2023/09/11 07:47:36;;;;;;;10.70;9.30;;;;;;;21.11;83.94;100105.44;131120;1254;97830;-77
2023/09/11 07:50:41;;;;;;;13.20;10.20;;;;;;;21.21;84.14;100101.85;131053;1254;97803;-77
2023/09/11 07:53:51;;;;;;;14.70;10.20;;;;;;;21.38;84.19;100103.03;131095;1254;97180;-77
2023/09/11 07:56:57;;;;;;;11.60;10.00;;;;;;;21.49;83.67;100103.53;131365;1249;96580;-77
2023/09/11 08:00:04;;;;;;;11.10;10.00;;;;;;;21.56;83.30;100100.70;131575;1254;96603;-77
2023/09/11 08:03:10;;;;;;;13.50;10.70;;;;;;;21.66;83.41;100101.45;131586;1254;97359;-79
2023/09/11 08:06:24;;;;;;;11.10;9.50;;;;;;;21.74;82.82;100100.48;131340;1255;97383;-77
2023/09/11 08:09:29;;;;;;;11.40;9.30;;;;;;;21.83;82.56;100095.77;131648;1253;97810;-78
2023/09/11 08:12:40;;;;;;;10.20;9.10;;;;;;;21.98;81.73;100096.71;131614;1254;97471;-78
2023/09/11 08:15:46;;;;;;;12.90;9.10;;;;;;;22.13;80.98;100092.68;131673;1251;96634;-78
2023/09/11 08:18:51;;;;;;;9.90;8.90;;;;;;;22.26;81.44;100094.34;131825;1251;97230;-78
2023/09/11 08:21:57;;;;;;;10.60;9.50;;;;;;;22.32;80.70;100091.52;131715;1252;97771;-77
2023/09/11 08:25:03;;;;;;;10.30;9.30;;;;;;;22.43;80.94;100093.60;131690;1254;97804;-78
2023/09/11 08:28:09;;;;;;;10.10;9.10;;;;;;;22.51;80.65;100092.34;131683;1250;96590;-78
2023/09/11 08:31:15;;;;;;;11.00;9.90;;;;;;;22.56;80.71;100093.92;131674;1250;96612;-78
2023/09/11 08:34:21;;;;;;;11.60;9.70;;;;;;;22.57;80.16;100096.71;131797;1254;97793;-78
2023/09/11 08:37:27;;;;;;;10.80;9.20;;;;;;;22.56;80.16;100093.16;131659;1254;96681;-78
2023/09/11 08:40:33;;;;;;;10.00;9.10;;;;;;;22.63;80.20;100094.52;131478;1250;97766;-80
2023/09/11 08:43:39;;;;;;;11.50;9.30;;;;;;;22.70;79.98;100095.67;131348;1254;97400;-77
2023/09/11 08:46:49;;;;;;;12.60;9.60;;;;;;;22.82;79.78;100094.94;131227;1254;96650;-78
2023/09/11 08:50:00;;;;;;;9.60;8.60;;;;;;;22.96;79.90;100092.48;131420;1253;97757;-77
2023/09/11 08:53:06;;;;;;;10.00;9.00;;;;;;;23.03;79.14;100092.48;131311;1254;96619;-78
2023/09/11 08:56:13;;;;;;;10.00;8.90;;;;;;;23.07;78.67;100093.52;131204;1252;97736;-77
2023/09/11 08:59:22;;;;;;;9.50;8.40;;;;;;;23.18;77.68;100092.91;131245;1253;96642;-77
2023/09/11 09:02:29;;;;;;;9.30;8.40;;;;;;;23.30;77.46;100088.60;131169;1250;97675;-77
2023/09/11 09:05:36;;;;;;;10.00;8.90;;;;;;;23.36;76.56;100091.59;131016;1250;97714;-77
2023/09/11 09:08:43;;;;;;;11.00;8.70;;;;;;;23.44;75.92;100087.48;131373;1254;97294;-77
2023/09/11 09:11:49;;;;;;;10.40;8.30;;;;;;;23.48;75.43;100086.46;131282;1251;96779;-77
2023/09/11 09:14:54;;;;;;;10.00;8.50;;;;;;;23.63;75.90;100086.02;131086;1251;96647;-77
2023/09/11 09:18:00;;;;;;;9.40;8.40;;;;;;;23.74;74.38;100085.70;131198;1253;97821;-77
2023/09/11 09:21:07;;;;;;;8.90;7.80;;;;;;;23.88;72.15;100089.58;131114;1250;97392;-77
2023/09/11 09:24:17;;;;;;;8.90;7.40;;;;;;;24.02;69.39;100083.81;131208;1268;97158;-77
2023/09/11 09:27:26;;;;;;;8.40;7.60;;;;;;;24.20;69.78;100083.55;131107;1254;97800;-77
2023/09/11 09:30:33;;;;;;;8.30;7.40;;;;;;;24.32;66.53;100078.27;131232;1254;97796;-77
2023/09/11 09:33:39;;;;;;;7.30;6.60;;;;;;;24.44;65.35;100078.12;131119;1255;97811;-77
2023/09/11 09:36:52;;;;;;;8.00;7.20;;;;;;;24.55;65.90;100073.73;131161;1254;97395;-77
2023/09/11 09:39:58;;;;;;;6.60;5.90;;;;;;;24.66;63.39;100074.55;131135;1254;96700;-77
2023/09/11 09:43:06;;;;;;;7.40;6.70;;;;;;;24.74;67.42;100069.15;131231;1254;97090;-77
2023/09/11 09:46:22;;;;;;;7.70;7.00;;;;;;;24.68;67.81;100067.17;131211;1250;97682;-78
2023/09/11 09:49:27;;;;;;;8.10;7.10;;;;;;;24.61;68.03;100066.30;131212;1252;97785;-77
2023/09/11 09:52:33;;;;;;;8.00;6.80;;;;;;;24.59;68.09;100059.83;131259;1255;97776;-79
2023/09/11 09:55:42;;;;;;;7.90;6.80;;;;;;;24.62;68.17;100056.53;131382;1254;96604;-79
2023/09/11 09:58:48;;;;;;;8.40;7.60;;;;;;;24.64;67.76;100059.23;131140;1250;96605;-79
2023/09/11 10:01:54;;;;;;;7.60;6.80;;;;;;;24.62;67.55;100054.69;131200;1254;96800;-78
2023/09/11 10:05:02;;;;;;;8.10;7.30;;;;;;;24.62;67.34;100054.36;131078;1254;96648;-78
2023/09/11 10:08:09;;;;;;;8.90;7.50;;;;;;;24.66;67.07;100048.36;131172;1255;97673;-78
2023/09/11 10:11:29;;;;;;;8.80;7.90;;;;;;;24.74;66.72;100045.17;131208;1254;97417;-78
2023/09/11 10:14:35;;;;;;;10.40;6.80;;;;;;;24.78;66.11;100039.69;131101;1250;96598;-78
2023/09/11 10:17:42;;;;;;;8.90;7.60;;;;;;;24.81;65.54;100040.59;131135;1254;96649;-78
2023/09/11 10:20:47;;;;;;;8.00;7.00;;;;;;;24.90;65.61;100040.05;131167;1254;96613;-78
2023/09/11 10:23:54;;;;;;;9.70;7.70;;;;;;;24.97;64.83;100038.58;131095;1265;97406;-78
2023/09/11 10:27:04;;;;;;;7.70;7.00;;;;;;;25.08;62.62;100038.38;131084;1250;96595;-78
2023/09/11 10:30:13;;;;;;;7.30;6.60;;;;;;;25.21;62.28;100037.38;131180;1254;96710;-78
2023/09/11 10:33:22;;;;;;;7.30;6.60;;;;;;;25.26;63.92;100031.96;131178;1249;97043;-78
2023/09/11 10:36:31;;;;;;;10.60;7.50;;;;;;;25.25;60.40;100030.52;131086;1250;97316;-78
2023/09/11 10:39:38;;;;;;;8.20;6.80;;;;;;;25.49;60.43;100028.59;131036;1253;97443;-79
2023/09/11 10:42:44;;;;;;;7.70;6.80;;;;;;;25.57;62.08;100027.31;131055;1255;96621;-79
2023/09/11 10:45:51;;;;;;;7.60;6.90;;;;;;;25.51;62.27;100021.13;131224;1255;97659;-79
2023/09/11 10:48:58;;;;;;;8.20;7.30;;;;;;;25.39;62.44;100022.58;131191;1254;96676;-78
2023/09/11 10:52:07;;;;;;;8.80;7.20;;;;;;;25.26;61.86;100021.40;131123;1253;97815;-78
2023/09/11 10:55:14;;;;;;;8.10;7.40;;;;;;;25.41;59.70;100021.45;131035;1254;96636;-78
2023/09/11 10:58:22;;;;;;;9.00;7.40;;;;;;;25.64;58.22;100017.64;131036;1254;97292;-78
2023/09/11 11:01:28;;;;;;;8.90;7.30;;;;;;;25.78;56.89;100011.27;131026;1254;96694;-78
2023/09/11 11:04:35;;;;;;;8.50;7.50;;;;;;;25.91;56.40;100012.92;131156;1250;97665;-79
2023/09/11 11:07:41;;;;;;;7.70;6.90;;;;;;;26.02;57.60;100010.84;131041;1250;97282;-78
2023/09/11 11:10:50;;;;;;;8.70;7.20;;;;;;;26.02;57.96;100005.76;131035;1253;96837;-78
2023/09/11 11:14:16;;;;;;;7.90;7.10;;;;;;;25.97;57.05;100001.56;131016;1255;96607;-79
2023/09/11 11:17:36;;;;;;;8.00;7.10;;;;;;;25.94;57.94;100000.06;131187;1255;96812;-79
2023/09/11 11:21:05;;;;;;;8.30;7.00;;;;;;;25.97;56.59;99998.83;131057;1250;96992;-79
2023/09/11 11:24:12;;;;;;;8.10;7.30;;;;;;;26.03;56.96;99999.31;131102;1250;96613;-80
2023/09/11 11:27:17;;;;;;;14.80;7.50;;;;;;;26.05;56.03;99993.21;130986;1267;127586;-80
2023/09/11 11:30:23;;;;;;;7.80;7.00;;;;;;;26.09;57.09;99995.19;131076;1250;96695;-80
2023/09/11 11:33:34;;;;;;;7.30;6.60;;;;;;;26.04;57.26;99995.60;131272;1252;96643;-79
2023/09/11 11:36:41;;;;;;;7.40;6.70;;;;;;;25.97;57.18;99998.67;131139;1254;97823;-78
2023/09/11 11:39:47;;;;;;;7.60;6.90;;;;;;;25.94;55.50;99995.56;131054;1255;96606;-78
2023/09/11 11:42:53;;;;;;;7.40;6.70;;;;;;;25.98;56.89;99990.58;131064;1251;96629;-78
2023/09/11 11:45:59;;;;;;;7.40;6.70;;;;;;;25.87;57.22;99993.36;130979;1249;97283;-78
2023/09/11 11:49:05;;;;;;;7.30;6.60;;;;;;;25.77;56.74;99994.86;131086;1255;97260;-78
2023/09/11 11:52:11;;;;;;;8.00;7.20;;;;;;;25.76;56.15;99994.36;131020;1253;96585;-78
2023/09/11 11:55:22;;;;;;;7.40;6.70;;;;;;;25.80;56.42;99992.70;131022;1254;96611;-78
2023/09/11 11:58:28;;;;;;;7.40;6.80;;;;;;;25.81;54.82;99985.83;130941;1250;97332;-78
2023/09/11 12:01:38;;;;;;;7.20;6.50;;;;;;;25.87;55.96;99986.97;130976;1253;96595;-79
2023/09/11 12:04:45;;;;;;;8.00;7.00;;;;;;;25.86;55.90;99983.84;131010;1250;96597;-78
2023/09/11 12:08:03;;;;;;;7.60;6.80;;;;;;;25.94;55.36;99982.02;131215;1249;96621;-79
2023/09/11 12:11:10;;;;;;;7.60;6.80;;;;;;;25.98;55.07;99980.95;131315;1249;97826;-79
2023/09/11 12:14:17;;;;;;;7.60;6.90;;;;;;;26.07;55.48;99974.46;130893;1254;96597;-79
2023/09/11 12:17:23;;;;;;;10.20;6.80;;;;;;;26.11;53.99;99976.78;131428;1255;97781;-80
2023/09/11 12:20:28;;;;;;;7.20;6.50;;;;;;;26.10;54.41;99976.17;131179;1249;96593;-80
2023/09/11 12:23:34;;;;;;;8.10;6.90;;;;;;;26.13;54.95;99970.84;131041;1249;96693;-80
2023/09/11 12:26:41;;;;;;;7.60;6.90;;;;;;;26.15;54.28;99975.88;131152;1249;96611;-77
2023/09/11 12:29:48;;;;;;;7.90;7.00;;;;;;;26.16;54.53;99974.52;131080;1254;97806;-78
2023/09/11 12:32:54;;;;;;;7.50;6.70;;;;;;;26.24;53.16;99975.66;131129;1253;96592;-79
2023/09/11 12:35:59;;;;;;;7.70;6.90;;;;;;;26.37;53.93;99974.33;131449;1249;97782;-79
2023/09/11 12:39:09;;;;;;;7.80;7.00;;;;;;;26.51;53.63;99974.29;131109;1255;96607;-78
2023/09/11 12:42:15;;;;;;;8.20;6.70;;;;;;;26.55;51.20;99974.09;131154;1250;96614;-78
2023/09/11 12:45:22;;;;;;;8.10;7.30;;;;;;;26.60;50.74;99968.29;131328;1254;97412;-78
2023/09/11 12:48:28;;;;;;;8.60;7.00;;;;;;;26.66;52.66;99967.27;131355;1250;97309;-78
2023/09/11 12:51:34;;;;;;;8.00;7.10;;;;;;;26.59;52.87;99963.18;131302;1249;97265;-79
2023/09/11 12:54:40;;;;;;;7.90;6.80;;;;;;;26.54;53.15;99962.20;131144;1250;96690;-79
2023/09/11 12:57:46;;;;;;;8.30;6.90;;;;;;;26.48;53.10;99962.02;131071;1253;98214;-79
2023/09/11 13:00:51;;;;;;;7.60;6.90;;;;;;;26.54;52.75;99955.69;131071;1249;97673;-79
2023/09/11 13:03:59;;;;;;;13.70;7.60;;;;;;;26.58;52.61;99960.55;131159;1254;96621;-78
2023/09/11 13:07:06;;;;;;;7.90;7.00;;;;;;;26.72;51.04;99960.52;131138;1255;97788;-78
2023/09/11 13:10:14;;;;;;;8.10;7.30;;;;;;;26.78;50.83;99956.86;131404;1249;96598;-78
2023/09/11 13:13:20;;;;;;;7.90;7.20;;;;;;;26.67;51.72;99955.51;130902;1254;97794;-79
2023/09/11 13:16:26;;;;;;;9.40;6.90;;;;;;;26.59;51.24;99953.72;131323;1254;97380;-79
2023/09/11 13:19:31;;;;;;;8.00;7.20;;;;;;;26.56;51.37;99950.83;131207;1255;96604;-81
2023/09/11 13:22:37;;;;;;;8.00;7.20;;;;;;;26.46;51.54;99950.13;131230;1253;97312;-80
2023/09/11 13:25:44;;;;;;;7.50;6.70;;;;;;;26.36;51.88;99942.75;131133;1252;96602;-80
2023/09/11 13:28:50;;;;;;;7.50;6.80;;;;;;;26.33;52.17;99941.52;131043;1249;97276;-78
2023/09/11 13:31:55;;;;;;;7.40;6.60;;;;;;;26.18;52.17;99940.57;131026;1250;96653;-77
2023/09/11 13:35:01;;;;;;;7.20;6.60;;;;;;;26.01;52.51;99940.19;131158;1249;97383;-78
2023/09/11 13:38:07;;;;;;;8.20;7.10;;;;;;;25.86;52.66;99942.63;131020;1254;96586;-76
2023/09/11 13:41:13;;;;;;;7.70;7.00;;;;;;;25.80;52.51;99942.41;130980;1262;96611;-77
2023/09/11 13:44:18;;;;;;;7.50;6.80;;;;;;;25.84;52.03;99940.52;131174;1255;96685;-79
2023/09/11 13:47:25;;;;;;;8.20;7.10;;;;;;;25.92;52.03;99935.36;131112;1253;96776;-80
2023/09/11 13:50:30;;;;;;;7.90;7.10;;;;;;;26.00;51.51;99933.90;131062;1255;96697;-77
2023/09/11 13:53:36;;;;;;;8.90;7.30;;;;;;;26.11;51.05;99929.91;131054;1255;96628;-79
2023/09/11 13:56:42;;;;;;;7.60;6.90;;;;;;;26.21;51.42;99929.05;131189;1250;96595;-79
2023/09/11 13:59:47;;;;;;;8.70;7.90;;;;;;;26.33;51.29;99927.42;131833;1251;96693;-77
2023/09/11 14:02:53;;;;;;;8.30;7.40;;;;;;;26.44;51.54;99927.08;131048;1254;97784;-79
2023/09/11 14:05:58;;;;;;;7.90;7.10;;;;;;;26.48;51.05;99929.51;131114;1254;96999;-80
2023/09/11 14:09:05;;;;;;;7.50;6.50;;;;;;;26.50;50.16;99923.27;131147;1250;96684;-79
2023/09/11 14:12:11;;;;;;;10.60;7.00;;;;;;;26.65;49.92;99922.72;131071;1249;97795;-79